sensor_id;sensor_type;location;lat;lon;timestamp;temperature;humidity
41262;DHT22;29629;52.532;13.352;2023-02-01T00:01:41;5.20;99.90
41262;DHT22;29629;52.532;13.352;2023-02-01T00:04:08;5.20;99.90
41262;DHT22;29629;52.532;13.352;2023-02-01T00:06:36;5.10;99.90
41262;DHT22;29629;52.532;13.352;2023-02-01T00:09:03;5.10;99.90
41262;DHT22;29629;52.532;13.352;2023-02-01T00:11:30;5.10;99.90
41262;DHT22;29629;52.532;13.352;2023-02-01T00:13:56;5.10;99.90
41262;DHT22;29629;52.532;13.352;2023-02-01T00:16:24;5.10;99.90
41262;DHT22;29629;52.532;13.352;2023-02-01T00:18:57;5.20;99.90
41262;DHT22;29629;52.532;13.352;2023-02-01T00:21:24;5.10;99.90
41262;DHT22;29629;52.532;13.352;2023-02-01T00:23:53;5.10;99.90
41262;DHT22;29629;52.532;13.352;2023-02-01T00:26:21;5.10;99.90
41262;DHT22;29629;52.532;13.352;2023-02-01T00:28:49;5.20;99.90
41262;DHT22;29629;52.532;13.352;2023-02-01T00:31:16;5.10;99.90
41262;DHT22;29629;52.532;13.352;2023-02-01T00:33:42;5.20;99.90
41262;DHT22;29629;52.532;13.352;2023-02-01T00:36:09;5.20;99.90
41262;DHT22;29629;52.532;13.352;2023-02-01T00:38:37;5.20;99.90
41262;DHT22;29629;52.532;13.352;2023-02-01T00:41:06;5.10;99.90
41262;DHT22;29629;52.532;13.352;2023-02-01T00:43:33;5.10;99.90
41262;DHT22;29629;52.532;13.352;2023-02-01T00:46:00;5.10;99.90
41262;DHT22;29629;52.532;13.352;2023-02-01T00:48:27;5.10;99.90
41262;DHT22;29629;52.532;13.352;2023-02-01T00:50:53;5.00;99.90
41262;DHT22;29629;52.532;13.352;2023-02-01T00:53:20;5.00;99.90
41262;DHT22;29629;52.532;13.352;2023-02-01T00:55:47;5.00;99.90
41262;DHT22;29629;52.532;13.352;2023-02-01T00:58:15;5.00;99.90
41262;DHT22;29629;52.532;13.352;2023-02-01T01:00:42;5.00;99.90
41262;DHT22;29629;52.532;13.352;2023-02-01T01:03:09;4.90;99.90
41262;DHT22;29629;52.532;13.352;2023-02-01T01:05:44;4.90;99.90
41262;DHT22;29629;52.532;13.352;2023-02-01T01:08:10;4.80;99.90
41262;DHT22;29629;52.532;13.352;2023-02-01T01:10:37;4.80;99.90
41262;DHT22;29629;52.532;13.352;2023-02-01T01:13:04;4.70;99.90
41262;DHT22;29629;52.532;13.352;2023-02-01T01:15:32;4.70;99.90
41262;DHT22;29629;52.532;13.352;2023-02-01T01:18:01;4.70;99.90
41262;DHT22;29629;52.532;13.352;2023-02-01T01:20:42;4.70;99.90
41262;DHT22;29629;52.532;13.352;2023-02-01T01:23:08;4.70;99.90
41262;DHT22;29629;52.532;13.352;2023-02-01T01:25:36;4.70;99.90
41262;DHT22;29629;52.532;13.352;2023-02-01T01:28:03;4.70;99.90
41262;DHT22;29629;52.532;13.352;2023-02-01T01:30:30;4.70;99.90
41262;DHT22;29629;52.532;13.352;2023-02-01T01:32:58;4.70;99.90
41262;DHT22;29629;52.532;13.352;2023-02-01T01:35:25;4.70;99.90
41262;DHT22;29629;52.532;13.352;2023-02-01T01:37:52;4.70;99.90
41262;DHT22;29629;52.532;13.352;2023-02-01T01:40:19;4.70;99.90
41262;DHT22;29629;52.532;13.352;2023-02-01T01:42:45;4.70;99.90
41262;DHT22;29629;52.532;13.352;2023-02-01T01:45:19;4.70;99.90
41262;DHT22;29629;52.532;13.352;2023-02-01T01:47:48;4.70;99.90
41262;DHT22;29629;52.532;13.352;2023-02-01T01:50:17;4.80;99.90
41262;DHT22;29629;52.532;13.352;2023-02-01T01:52:45;4.80;99.90
41262;DHT22;29629;52.532;13.352;2023-02-01T01:55:13;4.80;99.90
41262;DHT22;29629;52.532;13.352;2023-02-01T01:57:41;4.90;99.90
41262;DHT22;29629;52.532;13.352;2023-02-01T02:00:10;4.80;99.90
41262;DHT22;29629;52.532;13.352;2023-02-01T02:02:37;4.90;99.90
41262;DHT22;29629;52.532;13.352;2023-02-01T02:05:05;4.90;99.90
41262;DHT22;29629;52.532;13.352;2023-02-01T02:07:34;4.90;99.90
41262;DHT22;29629;52.532;13.352;2023-02-01T02:10:03;4.90;99.90
41262;DHT22;29629;52.532;13.352;2023-02-01T02:12:31;4.90;99.90
41262;DHT22;29629;52.532;13.352;2023-02-01T02:14:58;4.90;99.90
41262;DHT22;29629;52.532;13.352;2023-02-01T02:17:32;4.90;99.90
41262;DHT22;29629;52.532;13.352;2023-02-01T02:23:02;4.90;99.90
41262;DHT22;29629;52.532;13.352;2023-02-01T02:28:33;4.90;99.90
41262;DHT22;29629;52.532;13.352;2023-02-01T02:31:17;4.90;99.90
41262;DHT22;29629;52.532;13.352;2023-02-01T02:33:53;4.90;99.90
41262;DHT22;29629;52.532;13.352;2023-02-01T02:36:23;4.90;99.90
41262;DHT22;29629;52.532;13.352;2023-02-01T02:38:59;4.90;99.90
41262;DHT22;29629;52.532;13.352;2023-02-01T02:41:31;4.90;99.90
41262;DHT22;29629;52.532;13.352;2023-02-01T02:44:19;4.90;99.90
41262;DHT22;29629;52.532;13.352;2023-02-01T02:47:06;4.90;99.90
41262;DHT22;29629;52.532;13.352;2023-02-01T02:49:54;4.90;99.90
41262;DHT22;29629;52.532;13.352;2023-02-01T02:52:36;4.90;99.90
41262;DHT22;29629;52.532;13.352;2023-02-01T02:55:24;5.00;99.90
41262;DHT22;29629;52.532;13.352;2023-02-01T02:57:52;5.00;99.90
41262;DHT22;29629;52.532;13.352;2023-02-01T03:00:37;5.00;99.90
41262;DHT22;29629;52.532;13.352;2023-02-01T03:03:22;5.00;99.90
41262;DHT22;29629;52.532;13.352;2023-02-01T03:06:10;5.00;99.90
41262;DHT22;29629;52.532;13.352;2023-02-01T03:08:38;5.00;99.90
41262;DHT22;29629;52.532;13.352;2023-02-01T03:11:10;5.00;99.90
41262;DHT22;29629;52.532;13.352;2023-02-01T03:13:40;5.00;99.90
41262;DHT22;29629;52.532;13.352;2023-02-01T03:16:09;5.00;99.90
41262;DHT22;29629;52.532;13.352;2023-02-01T03:18:40;5.00;99.90
41262;DHT22;29629;52.532;13.352;2023-02-01T03:21:10;5.00;99.90
41262;DHT22;29629;52.532;13.352;2023-02-01T03:23:39;5.00;99.90
41262;DHT22;29629;52.532;13.352;2023-02-01T03:26:06;5.00;99.90
41262;DHT22;29629;52.532;13.352;2023-02-01T03:28:34;5.00;99.90
41262;DHT22;29629;52.532;13.352;2023-02-01T03:31:01;5.00;99.90
41262;DHT22;29629;52.532;13.352;2023-02-01T03:33:28;5.00;99.90
41262;DHT22;29629;52.532;13.352;2023-02-01T03:35:58;5.00;99.90
41262;DHT22;29629;52.532;13.352;2023-02-01T03:38:29;5.00;99.90
41262;DHT22;29629;52.532;13.352;2023-02-01T03:41:00;5.00;99.90
41262;DHT22;29629;52.532;13.352;2023-02-01T03:43:28;5.00;99.90
41262;DHT22;29629;52.532;13.352;2023-02-01T03:45:57;5.00;99.90
41262;DHT22;29629;52.532;13.352;2023-02-01T03:48:25;5.00;99.90
41262;DHT22;29629;52.532;13.352;2023-02-01T03:50:53;5.00;99.90
41262;DHT22;29629;52.532;13.352;2023-02-01T03:53:22;5.00;99.90
41262;DHT22;29629;52.532;13.352;2023-02-01T03:55:51;5.00;99.90
41262;DHT22;29629;52.532;13.352;2023-02-01T03:58:19;5.00;99.90
41262;DHT22;29629;52.532;13.352;2023-02-01T04:00:50;5.10;99.90
41262;DHT22;29629;52.532;13.352;2023-02-01T04:03:17;5.10;99.90
41262;DHT22;29629;52.532;13.352;2023-02-01T04:05:43;5.10;99.90
41262;DHT22;29629;52.532;13.352;2023-02-01T04:08:10;5.10;99.90
41262;DHT22;29629;52.532;13.352;2023-02-01T04:10:37;5.20;99.90
41262;DHT22;29629;52.532;13.352;2023-02-01T04:13:05;5.20;99.90
41262;DHT22;29629;52.532;13.352;2023-02-01T04:15:32;5.20;99.90
41262;DHT22;29629;52.532;13.352;2023-02-01T04:17:59;5.20;99.90
41262;DHT22;29629;52.532;13.352;2023-02-01T04:20:26;5.30;99.90
41262;DHT22;29629;52.532;13.352;2023-02-01T04:22:53;5.20;99.90
41262;DHT22;29629;52.532;13.352;2023-02-01T04:25:20;5.30;99.90
41262;DHT22;29629;52.532;13.352;2023-02-01T04:27:47;5.30;99.90
41262;DHT22;29629;52.532;13.352;2023-02-01T04:30:15;5.30;99.90
41262;DHT22;29629;52.532;13.352;2023-02-01T04:32:42;5.30;99.90
41262;DHT22;29629;52.532;13.352;2023-02-01T04:35:08;5.40;99.90
41262;DHT22;29629;52.532;13.352;2023-02-01T04:37:37;5.40;99.90
41262;DHT22;29629;52.532;13.352;2023-02-01T04:40:04;5.40;99.90
41262;DHT22;29629;52.532;13.352;2023-02-01T04:42:31;5.40;99.90
41262;DHT22;29629;52.532;13.352;2023-02-01T04:44:57;5.50;99.90
41262;DHT22;29629;52.532;13.352;2023-02-01T04:47:25;5.50;99.90
41262;DHT22;29629;52.532;13.352;2023-02-01T04:49:52;5.40;99.90
41262;DHT22;29629;52.532;13.352;2023-02-01T04:52:19;5.50;99.90
41262;DHT22;29629;52.532;13.352;2023-02-01T04:54:46;5.50;99.90
41262;DHT22;29629;52.532;13.352;2023-02-01T04:57:12;5.60;99.90
41262;DHT22;29629;52.532;13.352;2023-02-01T04:59:40;5.50;99.90
41262;DHT22;29629;52.532;13.352;2023-02-01T05:02:07;5.60;99.90
41262;DHT22;29629;52.532;13.352;2023-02-01T05:04:35;5.60;99.90
41262;DHT22;29629;52.532;13.352;2023-02-01T05:07:01;5.60;99.90
41262;DHT22;29629;52.532;13.352;2023-02-01T05:09:28;5.60;99.90
41262;DHT22;29629;52.532;13.352;2023-02-01T05:11:55;5.70;99.90
41262;DHT22;29629;52.532;13.352;2023-02-01T05:14:38;5.70;99.90
41262;DHT22;29629;52.532;13.352;2023-02-01T05:17:05;5.60;99.90
41262;DHT22;29629;52.532;13.352;2023-02-01T05:19:32;5.70;99.90
41262;DHT22;29629;52.532;13.352;2023-02-01T05:22:00;5.70;99.90
41262;DHT22;29629;52.532;13.352;2023-02-01T05:24:27;5.70;99.90
41262;DHT22;29629;52.532;13.352;2023-02-01T05:26:53;5.70;99.90
41262;DHT22;29629;52.532;13.352;2023-02-01T05:29:20;5.70;99.90
41262;DHT22;29629;52.532;13.352;2023-02-01T05:31:47;5.70;99.90
41262;DHT22;29629;52.532;13.352;2023-02-01T05:34:14;5.70;99.90
41262;DHT22;29629;52.532;13.352;2023-02-01T05:36:41;5.70;99.90
41262;DHT22;29629;52.532;13.352;2023-02-01T05:39:10;5.70;99.90
41262;DHT22;29629;52.532;13.352;2023-02-01T05:41:36;5.70;99.90
41262;DHT22;29629;52.532;13.352;2023-02-01T05:44:03;5.80;99.90
41262;DHT22;29629;52.532;13.352;2023-02-01T05:46:32;5.80;99.90
41262;DHT22;29629;52.532;13.352;2023-02-01T05:48:59;5.70;99.90
41262;DHT22;29629;52.532;13.352;2023-02-01T05:51:26;5.80;99.90
41262;DHT22;29629;52.532;13.352;2023-02-01T05:53:52;5.80;99.90
41262;DHT22;29629;52.532;13.352;2023-02-01T05:56:21;5.80;99.90
41262;DHT22;29629;52.532;13.352;2023-02-01T05:58:47;5.70;99.90
41262;DHT22;29629;52.532;13.352;2023-02-01T06:01:14;5.80;99.90
41262;DHT22;29629;52.532;13.352;2023-02-01T06:03:41;5.70;99.90
41262;DHT22;29629;52.532;13.352;2023-02-01T06:06:07;5.70;99.90
41262;DHT22;29629;52.532;13.352;2023-02-01T06:08:34;5.80;99.90
41262;DHT22;29629;52.532;13.352;2023-02-01T06:11:01;5.70;99.90
41262;DHT22;29629;52.532;13.352;2023-02-01T06:13:30;5.80;99.90
41262;DHT22;29629;52.532;13.352;2023-02-01T06:15:56;5.70;99.90
41262;DHT22;29629;52.532;13.352;2023-02-01T06:18:23;5.70;99.90
41262;DHT22;29629;52.532;13.352;2023-02-01T06:20:53;5.70;99.90
41262;DHT22;29629;52.532;13.352;2023-02-01T06:23:20;5.60;99.90
41262;DHT22;29629;52.532;13.352;2023-02-01T06:25:50;5.60;99.90
41262;DHT22;29629;52.532;13.352;2023-02-01T06:28:16;5.60;99.90
41262;DHT22;29629;52.532;13.352;2023-02-01T06:30:44;5.60;99.90
41262;DHT22;29629;52.532;13.352;2023-02-01T06:33:12;5.60;99.90
41262;DHT22;29629;52.532;13.352;2023-02-01T06:35:40;5.60;99.90
41262;DHT22;29629;52.532;13.352;2023-02-01T06:38:07;5.50;99.90
41262;DHT22;29629;52.532;13.352;2023-02-01T06:40:34;5.50;99.90
41262;DHT22;29629;52.532;13.352;2023-02-01T06:43:00;5.50;99.90
41262;DHT22;29629;52.532;13.352;2023-02-01T06:45:27;5.50;99.90
41262;DHT22;29629;52.532;13.352;2023-02-01T06:47:55;5.60;99.90
41262;DHT22;29629;52.532;13.352;2023-02-01T06:50:22;5.50;99.90
41262;DHT22;29629;52.532;13.352;2023-02-01T06:52:49;5.60;99.90
41262;DHT22;29629;52.532;13.352;2023-02-01T06:55:15;5.60;99.90
41262;DHT22;29629;52.532;13.352;2023-02-01T06:57:42;5.60;99.90
41262;DHT22;29629;52.532;13.352;2023-02-01T07:00:09;5.60;99.90
41262;DHT22;29629;52.532;13.352;2023-02-01T07:02:36;5.60;99.90
41262;DHT22;29629;52.532;13.352;2023-02-01T07:05:05;5.60;99.90
41262;DHT22;29629;52.532;13.352;2023-02-01T07:07:32;5.60;99.90
41262;DHT22;29629;52.532;13.352;2023-02-01T07:09:59;5.60;99.90
41262;DHT22;29629;52.532;13.352;2023-02-01T07:12:26;5.60;99.90
41262;DHT22;29629;52.532;13.352;2023-02-01T07:14:52;5.60;99.90
41262;DHT22;29629;52.532;13.352;2023-02-01T07:17:19;5.60;99.90
41262;DHT22;29629;52.532;13.352;2023-02-01T07:19:46;5.60;99.90
41262;DHT22;29629;52.532;13.352;2023-02-01T07:22:14;5.60;99.90
41262;DHT22;29629;52.532;13.352;2023-02-01T07:24:42;5.60;99.90
41262;DHT22;29629;52.532;13.352;2023-02-01T07:27:09;5.50;99.90
41262;DHT22;29629;52.532;13.352;2023-02-01T07:29:35;5.50;99.90
41262;DHT22;29629;52.532;13.352;2023-02-01T07:32:02;5.50;99.90
41262;DHT22;29629;52.532;13.352;2023-02-01T07:34:29;5.50;99.90
41262;DHT22;29629;52.532;13.352;2023-02-01T07:36:56;5.60;99.90
41262;DHT22;29629;52.532;13.352;2023-02-01T07:39:24;5.60;99.90
41262;DHT22;29629;52.532;13.352;2023-02-01T07:41:53;5.60;99.90
41262;DHT22;29629;52.532;13.352;2023-02-01T07:44:21;5.60;99.90
41262;DHT22;29629;52.532;13.352;2023-02-01T07:46:48;5.50;99.90
41262;DHT22;29629;52.532;13.352;2023-02-01T07:49:15;5.50;99.90
41262;DHT22;29629;52.532;13.352;2023-02-01T07:51:42;5.30;99.90
41262;DHT22;29629;52.532;13.352;2023-02-01T07:54:09;5.20;99.90
41262;DHT22;29629;52.532;13.352;2023-02-01T07:56:37;5.20;99.90
41262;DHT22;29629;52.532;13.352;2023-02-01T07:59:04;5.10;99.90
41262;DHT22;29629;52.532;13.352;2023-02-01T08:01:32;4.90;99.90
41262;DHT22;29629;52.532;13.352;2023-02-01T08:03:58;4.80;99.90
41262;DHT22;29629;52.532;13.352;2023-02-01T08:06:25;4.70;99.90
41262;DHT22;29629;52.532;13.352;2023-02-01T08:08:53;4.70;99.90
41262;DHT22;29629;52.532;13.352;2023-02-01T08:11:21;4.70;99.90
41262;DHT22;29629;52.532;13.352;2023-02-01T08:13:49;4.60;99.90
41262;DHT22;29629;52.532;13.352;2023-02-01T08:16:17;4.60;99.90
41262;DHT22;29629;52.532;13.352;2023-02-01T08:18:44;4.70;99.90
41262;DHT22;29629;52.532;13.352;2023-02-01T08:21:11;4.70;99.90
41262;DHT22;29629;52.532;13.352;2023-02-01T08:23:39;4.70;99.90
41262;DHT22;29629;52.532;13.352;2023-02-01T08:26:07;4.60;99.90
41262;DHT22;29629;52.532;13.352;2023-02-01T08:28:34;4.70;99.90
41262;DHT22;29629;52.532;13.352;2023-02-01T08:31:05;4.60;99.90
41262;DHT22;29629;52.532;13.352;2023-02-01T08:33:32;4.60;99.90
41262;DHT22;29629;52.532;13.352;2023-02-01T08:36:00;4.50;99.90
41262;DHT22;29629;52.532;13.352;2023-02-01T08:38:27;4.50;99.90
41262;DHT22;29629;52.532;13.352;2023-02-01T08:40:54;4.60;99.90
41262;DHT22;29629;52.532;13.352;2023-02-01T08:43:20;4.60;99.90
41262;DHT22;29629;52.532;13.352;2023-02-01T08:45:47;4.60;99.90
41262;DHT22;29629;52.532;13.352;2023-02-01T08:48:15;4.60;99.90
41262;DHT22;29629;52.532;13.352;2023-02-01T08:50:42;4.60;99.90
41262;DHT22;29629;52.532;13.352;2023-02-01T08:53:09;4.70;99.90
41262;DHT22;29629;52.532;13.352;2023-02-01T08:55:37;4.70;99.90
41262;DHT22;29629;52.532;13.352;2023-02-01T08:58:04;4.60;99.90
41262;DHT22;29629;52.532;13.352;2023-02-01T09:00:31;4.70;99.90
41262;DHT22;29629;52.532;13.352;2023-02-01T09:02:57;4.60;99.90
41262;DHT22;29629;52.532;13.352;2023-02-01T09:05:25;4.60;99.90
41262;DHT22;29629;52.532;13.352;2023-02-01T09:07:53;4.60;99.90
41262;DHT22;29629;52.532;13.352;2023-02-01T09:10:20;4.70;99.90
41262;DHT22;29629;52.532;13.352;2023-02-01T09:12:47;4.80;99.90
41262;DHT22;29629;52.532;13.352;2023-02-01T09:15:14;4.90;99.90
41262;DHT22;29629;52.532;13.352;2023-02-01T09:17:40;4.80;99.90
41262;DHT22;29629;52.532;13.352;2023-02-01T09:20:09;4.90;99.90
41262;DHT22;29629;52.532;13.352;2023-02-01T09:22:37;5.00;99.90
41262;DHT22;29629;52.532;13.352;2023-02-01T09:25:04;5.10;99.90
41262;DHT22;29629;52.532;13.352;2023-02-01T09:27:31;5.10;99.90
41262;DHT22;29629;52.532;13.352;2023-02-01T09:29:58;5.10;99.90
41262;DHT22;29629;52.532;13.352;2023-02-01T09:32:24;5.00;99.90
41262;DHT22;29629;52.532;13.352;2023-02-01T09:34:51;5.00;99.90
41262;DHT22;29629;52.532;13.352;2023-02-01T09:37:18;5.10;99.90
41262;DHT22;29629;52.532;13.352;2023-02-01T09:39:46;5.30;99.90
41262;DHT22;29629;52.532;13.352;2023-02-01T09:42:19;5.40;99.90
41262;DHT22;29629;52.532;13.352;2023-02-01T09:44:50;5.50;99.90
41262;DHT22;29629;52.532;13.352;2023-02-01T09:47:20;5.30;99.90
41262;DHT22;29629;52.532;13.352;2023-02-01T09:49:49;5.30;99.90
41262;DHT22;29629;52.532;13.352;2023-02-01T09:52:19;5.30;99.90
41262;DHT22;29629;52.532;13.352;2023-02-01T09:54:50;5.20;99.90
41262;DHT22;29629;52.532;13.352;2023-02-01T09:57:19;5.20;99.90
41262;DHT22;29629;52.532;13.352;2023-02-01T09:59:49;5.30;99.90
41262;DHT22;29629;52.532;13.352;2023-02-01T10:02:18;5.40;99.90
41262;DHT22;29629;52.532;13.352;2023-02-01T10:04:46;5.30;99.90
41262;DHT22;29629;52.532;13.352;2023-02-01T10:07:17;5.20;99.90
41262;DHT22;29629;52.532;13.352;2023-02-01T10:09:52;5.30;99.90
41262;DHT22;29629;52.532;13.352;2023-02-01T10:15:18;5.10;99.90
41262;DHT22;29629;52.532;13.352;2023-02-01T10:17:49;5.10;99.90
41262;DHT22;29629;52.532;13.352;2023-02-01T10:20:20;5.20;99.90
41262;DHT22;29629;52.532;13.352;2023-02-01T10:22:52;5.10;99.90
41262;DHT22;29629;52.532;13.352;2023-02-01T10:25:25;5.10;99.90
41262;DHT22;29629;52.532;13.352;2023-02-01T10:27:52;5.10;99.90
41262;DHT22;29629;52.532;13.352;2023-02-01T10:30:20;5.10;99.90
41262;DHT22;29629;52.532;13.352;2023-02-01T10:32:48;5.10;99.90
41262;DHT22;29629;52.532;13.352;2023-02-01T10:35:17;5.20;99.90
41262;DHT22;29629;52.532;13.352;2023-02-01T10:37:44;5.30;99.90
41262;DHT22;29629;52.532;13.352;2023-02-01T10:40:21;5.40;99.90
41262;DHT22;29629;52.532;13.352;2023-02-01T10:42:51;5.40;99.90
41262;DHT22;29629;52.532;13.352;2023-02-01T10:45:19;5.40;99.90
41262;DHT22;29629;52.532;13.352;2023-02-01T10:47:46;5.40;99.90
41262;DHT22;29629;52.532;13.352;2023-02-01T10:50:16;5.30;99.90
41262;DHT22;29629;52.532;13.352;2023-02-01T10:52:44;5.20;99.90
41262;DHT22;29629;52.532;13.352;2023-02-01T10:55:26;5.20;99.90
41262;DHT22;29629;52.532;13.352;2023-02-01T10:57:57;5.10;99.90
41262;DHT22;29629;52.532;13.352;2023-02-01T11:00:24;5.10;99.90
41262;DHT22;29629;52.532;13.352;2023-02-01T11:02:51;5.10;99.90
41262;DHT22;29629;52.532;13.352;2023-02-01T11:05:18;5.20;99.90
41262;DHT22;29629;52.532;13.352;2023-02-01T11:07:48;5.30;99.90
41262;DHT22;29629;52.532;13.352;2023-02-01T11:12:58;5.70;99.90
41262;DHT22;29629;52.532;13.352;2023-02-01T11:15:28;5.50;99.90
41262;DHT22;29629;52.532;13.352;2023-02-01T11:17:54;5.40;99.90
41262;DHT22;29629;52.532;13.352;2023-02-01T11:20:26;5.50;99.90
41262;DHT22;29629;52.532;13.352;2023-02-01T11:23:00;5.60;99.90
41262;DHT22;29629;52.532;13.352;2023-02-01T11:25:27;5.60;99.90
41262;DHT22;29629;52.532;13.352;2023-02-01T11:27:54;5.60;99.90
41262;DHT22;29629;52.532;13.352;2023-02-01T11:30:26;5.80;99.90
41262;DHT22;29629;52.532;13.352;2023-02-01T11:32:54;5.90;99.90
41262;DHT22;29629;52.532;13.352;2023-02-01T11:35:21;6.10;99.90
41262;DHT22;29629;52.532;13.352;2023-02-01T11:37:50;6.10;99.90
41262;DHT22;29629;52.532;13.352;2023-02-01T11:40:23;6.20;99.90
41262;DHT22;29629;52.532;13.352;2023-02-01T11:42:55;6.10;99.90
41262;DHT22;29629;52.532;13.352;2023-02-01T11:45:26;6.10;99.90
41262;DHT22;29629;52.532;13.352;2023-02-01T11:47:53;6.10;99.90
41262;DHT22;29629;52.532;13.352;2023-02-01T11:50:22;6.10;99.90
41262;DHT22;29629;52.532;13.352;2023-02-01T11:52:56;6.30;99.90
41262;DHT22;29629;52.532;13.352;2023-02-01T11:55:37;6.50;99.90
41262;DHT22;29629;52.532;13.352;2023-02-01T11:58:15;6.60;99.90
41262;DHT22;29629;52.532;13.352;2023-02-01T12:00:48;6.70;99.90
41262;DHT22;29629;52.532;13.352;2023-02-01T12:03:28;6.80;99.90
41262;DHT22;29629;52.532;13.352;2023-02-01T12:05:59;6.90;99.90
41262;DHT22;29629;52.532;13.352;2023-02-01T12:08:32;6.90;99.90
41262;DHT22;29629;52.532;13.352;2023-02-01T12:11:09;6.90;99.90
41262;DHT22;29629;52.532;13.352;2023-02-01T12:13:55;7.00;99.90
41262;DHT22;29629;52.532;13.352;2023-02-01T12:16:27;6.90;99.90
41262;DHT22;29629;52.532;13.352;2023-02-01T12:19:01;6.90;99.90
41262;DHT22;29629;52.532;13.352;2023-02-01T12:21:43;6.80;99.90
41262;DHT22;29629;52.532;13.352;2023-02-01T12:24:24;6.80;99.90
41262;DHT22;29629;52.532;13.352;2023-02-01T12:26:56;6.80;99.90
41262;DHT22;29629;52.532;13.352;2023-02-01T12:32:12;6.60;99.90
41262;DHT22;29629;52.532;13.352;2023-02-01T12:34:47;6.60;99.90
41262;DHT22;29629;52.532;13.352;2023-02-01T12:37:18;6.60;99.90
41262;DHT22;29629;52.532;13.352;2023-02-01T12:39:47;6.50;99.90
41262;DHT22;29629;52.532;13.352;2023-02-01T12:42:16;6.60;99.90
41262;DHT22;29629;52.532;13.352;2023-02-01T12:44:45;6.50;99.90
41262;DHT22;29629;52.532;13.352;2023-02-01T12:47:16;6.50;99.90
41262;DHT22;29629;52.532;13.352;2023-02-01T12:49:50;6.60;99.90
41262;DHT22;29629;52.532;13.352;2023-02-01T12:52:20;6.70;99.90
41262;DHT22;29629;52.532;13.352;2023-02-01T12:54:48;6.70;99.90
41262;DHT22;29629;52.532;13.352;2023-02-01T12:57:17;6.70;99.90
41262;DHT22;29629;52.532;13.352;2023-02-01T12:59:49;6.80;99.90
41262;DHT22;29629;52.532;13.352;2023-02-01T13:02:22;6.80;99.90
41262;DHT22;29629;52.532;13.352;2023-02-01T13:04:53;6.90;99.90
41262;DHT22;29629;52.532;13.352;2023-02-01T13:07:24;7.00;99.90
41262;DHT22;29629;52.532;13.352;2023-02-01T13:09:53;7.00;99.90
41262;DHT22;29629;52.532;13.352;2023-02-01T13:12:23;7.00;99.90
41262;DHT22;29629;52.532;13.352;2023-02-01T13:14:52;7.00;99.90
41262;DHT22;29629;52.532;13.352;2023-02-01T13:17:22;7.00;99.90
41262;DHT22;29629;52.532;13.352;2023-02-01T13:19:53;7.00;99.90
41262;DHT22;29629;52.532;13.352;2023-02-01T13:22:22;7.00;99.90
41262;DHT22;29629;52.532;13.352;2023-02-01T13:24:52;7.10;99.90
41262;DHT22;29629;52.532;13.352;2023-02-01T13:27:20;7.10;99.90
41262;DHT22;29629;52.532;13.352;2023-02-01T13:29:50;7.00;99.90
41262;DHT22;29629;52.532;13.352;2023-02-01T13:32:24;7.00;99.90
41262;DHT22;29629;52.532;13.352;2023-02-01T13:34:57;6.90;99.90
41262;DHT22;29629;52.532;13.352;2023-02-01T13:37:35;6.90;99.90
41262;DHT22;29629;52.532;13.352;2023-02-01T13:40:10;6.90;99.90
41262;DHT22;29629;52.532;13.352;2023-02-01T13:42:42;6.90;99.90
41262;DHT22;29629;52.532;13.352;2023-02-01T13:45:13;6.90;99.90
41262;DHT22;29629;52.532;13.352;2023-02-01T13:47:43;6.90;99.90
41262;DHT22;29629;52.532;13.352;2023-02-01T13:50:12;6.90;99.90
41262;DHT22;29629;52.532;13.352;2023-02-01T13:52:41;7.00;99.90
41262;DHT22;29629;52.532;13.352;2023-02-01T13:55:16;7.00;99.90
41262;DHT22;29629;52.532;13.352;2023-02-01T13:57:50;6.90;99.90
41262;DHT22;29629;52.532;13.352;2023-02-01T14:00:25;7.00;99.90
41262;DHT22;29629;52.532;13.352;2023-02-01T14:08:37;6.90;99.90
41262;DHT22;29629;52.532;13.352;2023-02-01T14:11:04;6.90;99.90
41262;DHT22;29629;52.532;13.352;2023-02-01T14:13:32;6.80;99.90
41262;DHT22;29629;52.532;13.352;2023-02-01T14:16:10;6.30;99.90
41262;DHT22;29629;52.532;13.352;2023-02-01T14:18:48;6.20;99.90
41262;DHT22;29629;52.532;13.352;2023-02-01T14:21:18;6.30;99.90
41262;DHT22;29629;52.532;13.352;2023-02-01T14:23:47;6.30;99.90
41262;DHT22;29629;52.532;13.352;2023-02-01T14:26:21;6.30;99.90
41262;DHT22;29629;52.532;13.352;2023-02-01T14:28:50;6.40;99.90
41262;DHT22;29629;52.532;13.352;2023-02-01T14:31:32;6.50;99.90
41262;DHT22;29629;52.532;13.352;2023-02-01T14:34:00;6.50;99.90
41262;DHT22;29629;52.532;13.352;2023-02-01T14:36:38;6.50;99.90
41262;DHT22;29629;52.532;13.352;2023-02-01T14:39:16;6.50;99.90
41262;DHT22;29629;52.532;13.352;2023-02-01T14:41:45;6.50;99.90
41262;DHT22;29629;52.532;13.352;2023-02-01T14:44:13;6.60;99.90
41262;DHT22;29629;52.532;13.352;2023-02-01T14:49:28;6.60;99.90
41262;DHT22;29629;52.532;13.352;2023-02-01T14:51:56;6.50;99.90
41262;DHT22;29629;52.532;13.352;2023-02-01T14:54:24;6.60;99.90
41262;DHT22;29629;52.532;13.352;2023-02-01T14:56:51;6.50;99.90
41262;DHT22;29629;52.532;13.352;2023-02-01T14:59:20;6.50;99.90
41262;DHT22;29629;52.532;13.352;2023-02-01T15:01:49;6.50;99.90
41262;DHT22;29629;52.532;13.352;2023-02-01T15:04:16;6.50;99.90
41262;DHT22;29629;52.532;13.352;2023-02-01T15:06:47;6.40;99.90
41262;DHT22;29629;52.532;13.352;2023-02-01T15:09:15;6.50;99.90
41262;DHT22;29629;52.532;13.352;2023-02-01T15:12:00;6.40;99.90
41262;DHT22;29629;52.532;13.352;2023-02-01T15:14:28;6.40;99.90
41262;DHT22;29629;52.532;13.352;2023-02-01T15:16:55;6.20;99.90
41262;DHT22;29629;52.532;13.352;2023-02-01T15:19:22;6.00;99.90
41262;DHT22;29629;52.532;13.352;2023-02-01T15:21:50;5.90;99.90
41262;DHT22;29629;52.532;13.352;2023-02-01T15:24:19;5.90;99.90
41262;DHT22;29629;52.532;13.352;2023-02-01T15:26:46;5.90;99.90
41262;DHT22;29629;52.532;13.352;2023-02-01T15:29:14;5.60;99.90
41262;DHT22;29629;52.532;13.352;2023-02-01T15:31:42;5.60;99.90
41262;DHT22;29629;52.532;13.352;2023-02-01T15:34:10;5.50;99.90
41262;DHT22;29629;52.532;13.352;2023-02-01T15:36:37;5.50;99.90
41262;DHT22;29629;52.532;13.352;2023-02-01T15:39:14;5.10;99.90
41262;DHT22;29629;52.532;13.352;2023-02-01T15:41:45;4.80;99.90
41262;DHT22;29629;52.532;13.352;2023-02-01T15:44:16;4.60;99.90
41262;DHT22;29629;52.532;13.352;2023-02-01T15:46:45;4.30;99.90
41262;DHT22;29629;52.532;13.352;2023-02-01T15:49:19;4.20;99.90
41262;DHT22;29629;52.532;13.352;2023-02-01T15:51:47;4.30;99.90
41262;DHT22;29629;52.532;13.352;2023-02-01T15:54:15;4.20;99.90
41262;DHT22;29629;52.532;13.352;2023-02-01T15:56:48;4.30;99.90
41262;DHT22;29629;52.532;13.352;2023-02-01T15:59:19;4.20;99.90
41262;DHT22;29629;52.532;13.352;2023-02-01T16:01:47;4.20;99.90
41262;DHT22;29629;52.532;13.352;2023-02-01T16:04:16;4.00;99.90
41262;DHT22;29629;52.532;13.352;2023-02-01T16:06:46;3.90;99.90